createdAt,value
2018-06-22T00:01:55.692Z,2.20
2018-06-22T00:04:29.631Z,2.47
2018-06-22T00:07:03.860Z,2.37
2018-06-22T00:09:37.572Z,2.23
2018-06-22T00:12:11.879Z,2.67
2018-06-22T00:14:45.595Z,2.77
2018-06-22T00:17:20.290Z,2.63
2018-06-22T00:19:54.289Z,3.17
2018-06-22T00:22:28.351Z,2.47
2018-06-22T00:25:02.136Z,3.07
2018-06-22T00:27:36.089Z,2.90
2018-06-22T00:30:10.158Z,2.57
2018-06-22T00:32:44.454Z,2.87
2018-06-22T00:35:18.317Z,2.90
2018-06-22T00:37:52.179Z,2.30
2018-06-22T00:40:25.990Z,2.47
2018-06-22T00:43:00.313Z,3.37
2018-06-22T00:45:34.461Z,2.87
2018-06-22T00:48:08.479Z,3.20
2018-06-22T00:50:42.818Z,2.70
2018-06-22T00:53:27.816Z,2.97
2018-06-22T00:56:08.590Z,2.60
2018-06-22T00:58:42.442Z,2.67
2018-06-22T01:01:16.500Z,2.70
2018-06-22T01:03:50.899Z,2.53
2018-06-22T01:06:24.939Z,2.83
2018-06-22T01:08:58.736Z,2.57
2018-06-22T01:11:32.576Z,2.43
2018-06-22T01:14:06.779Z,3.20
2018-06-22T01:16:40.844Z,2.20
2018-06-22T01:19:14.941Z,2.70
2018-06-22T01:21:48.639Z,2.93
2018-06-22T01:24:22.711Z,2.40
2018-06-22T01:26:56.647Z,2.63
2018-06-22T01:29:31.727Z,2.30
2018-06-22T01:32:06.012Z,2.37
2018-06-22T01:34:40.079Z,2.43
2018-06-22T01:37:14.055Z,2.43
2018-06-22T01:39:48.041Z,2.60
2018-06-22T01:42:21.941Z,2.60
2018-06-22T01:44:55.896Z,2.00
2018-06-22T01:47:29.906Z,2.57
2018-06-22T01:50:04.190Z,2.53
2018-06-22T01:52:37.991Z,2.83
2018-06-22T01:55:12.035Z,2.10
2018-06-22T01:57:45.909Z,2.47
2018-06-22T02:00:20.449Z,2.53
2018-06-22T02:02:54.542Z,2.50
2018-06-22T02:05:28.586Z,2.70
2018-06-22T02:08:03.551Z,2.40
2018-06-22T02:10:38.156Z,2.20
2018-06-22T02:13:12.181Z,2.50
2018-06-22T02:15:47.037Z,2.90
2018-06-22T02:18:21.106Z,2.40
2018-06-22T02:20:55.171Z,2.30
2018-06-22T02:23:29.861Z,2.70
2018-06-22T02:26:04.057Z,2.10
2018-06-22T02:28:38.717Z,2.17
2018-06-22T02:31:12.941Z,2.27
2018-06-22T02:33:47.000Z,2.30
2018-06-22T02:36:21.056Z,2.87
2018-06-22T02:38:55.475Z,2.47
2018-06-22T02:41:29.620Z,2.70
2018-06-22T02:44:03.661Z,2.90
2018-06-22T02:46:38.028Z,2.30
2018-06-22T02:49:12.054Z,2.60
2018-06-22T02:51:46.112Z,2.87
2018-06-22T02:54:20.291Z,2.60
2018-06-22T02:56:57.491Z,2.67
2018-06-22T02:59:31.317Z,2.77
2018-06-22T03:02:05.295Z,2.70
2018-06-22T03:04:39.212Z,2.83
2018-06-22T03:07:12.961Z,2.47
2018-06-22T03:09:46.986Z,2.73
2018-06-22T03:12:21.009Z,2.43
2018-06-22T03:14:54.764Z,2.63
2018-06-22T03:17:29.620Z,2.80
2018-06-22T03:20:03.809Z,2.27
2018-06-22T03:22:38.030Z,2.83
2018-06-22T03:25:12.030Z,2.50
2018-06-22T03:27:46.056Z,2.10
2018-06-22T03:30:24.119Z,2.27
2018-06-22T03:32:58.784Z,2.30
2018-06-22T03:35:32.802Z,2.53
2018-06-22T03:38:07.206Z,2.47
2018-06-22T03:40:41.257Z,2.50
2018-06-22T03:43:14.971Z,2.43
2018-06-22T03:45:49.422Z,2.40
2018-06-22T03:48:23.775Z,2.10
2018-06-22T03:50:58.040Z,3.03
2018-06-22T03:53:31.787Z,2.60
2018-06-22T03:56:05.660Z,2.43
2018-06-22T03:58:39.709Z,2.17
2018-06-22T04:01:13.720Z,2.80
2018-06-22T04:03:47.685Z,2.37
2018-06-22T04:06:21.721Z,2.97
2018-06-22T04:08:55.725Z,2.60
2018-06-22T04:11:29.590Z,2.80
2018-06-22T04:14:03.667Z,2.83
2018-06-22T04:16:37.591Z,2.60
2018-06-22T04:19:11.437Z,2.60
2018-06-22T04:21:45.443Z,2.63
2018-06-22T04:24:19.519Z,2.47
2018-06-22T04:26:53.495Z,2.37
2018-06-22T04:29:27.516Z,2.67
2018-06-22T04:32:01.674Z,2.30
2018-06-22T04:34:35.717Z,2.73
2018-06-22T04:37:09.990Z,2.60
2018-06-22T04:39:44.173Z,2.53
2018-06-22T04:42:18.090Z,2.73
2018-06-22T04:44:52.626Z,2.77
2018-06-22T04:47:26.654Z,2.73
2018-06-22T04:50:01.981Z,2.80
2018-06-22T04:52:35.728Z,2.90
2018-06-22T04:55:10.028Z,3.00
2018-06-22T04:57:44.472Z,3.47
2018-06-22T05:00:18.780Z,3.20
2018-06-22T05:02:52.836Z,3.37
2018-06-22T05:05:26.899Z,3.27
2018-06-22T05:08:00.751Z,3.47
2018-06-22T05:10:34.552Z,3.30
2018-06-22T05:15:49.228Z,3.77
2018-06-22T05:18:22.957Z,3.60
2018-06-22T05:20:57.091Z,3.60
2018-06-22T05:23:31.350Z,4.33
2018-06-22T05:26:05.511Z,4.20
2018-06-22T05:28:39.681Z,3.87
2018-06-22T05:31:13.546Z,4.10
2018-06-22T05:33:47.635Z,4.43
2018-06-22T05:36:22.058Z,3.87
2018-06-22T05:38:56.026Z,4.17
2018-06-22T05:41:30.280Z,3.73
2018-06-22T05:44:04.080Z,4.33
2018-06-22T05:46:38.075Z,4.53
2018-06-22T05:49:12.126Z,4.47
2018-06-22T05:51:46.010Z,4.43
2018-06-22T05:54:20.393Z,4.73
2018-06-22T05:56:54.437Z,4.87
2018-06-22T05:59:28.682Z,5.07
2018-06-22T06:02:03.079Z,4.40
2018-06-22T06:04:37.142Z,5.43
2018-06-22T06:07:11.202Z,4.60
2018-06-22T06:09:45.474Z,4.97
2018-06-22T06:12:19.262Z,4.80
2018-06-22T06:14:53.237Z,5.03
2018-06-22T06:17:27.297Z,4.13
2018-06-22T06:20:01.301Z,4.73
2018-06-22T06:22:35.283Z,5.00
2018-06-22T06:25:09.098Z,5.07
2018-06-22T06:27:42.923Z,4.83
2018-06-22T06:30:16.871Z,5.60
2018-06-22T06:32:51.007Z,5.07
2018-06-22T06:35:25.412Z,4.83
2018-06-22T06:37:59.202Z,5.33
2018-06-22T06:40:33.191Z,5.07
2018-06-22T06:43:07.047Z,4.43
2018-06-22T06:45:41.172Z,3.97
2018-06-22T06:48:14.872Z,4.33
2018-06-22T06:50:48.893Z,5.37
2018-06-22T06:53:22.771Z,4.20
2018-06-22T06:55:57.301Z,4.97
2018-06-22T06:58:31.135Z,4.40
2018-06-22T07:01:05.030Z,3.93
2018-06-22T07:03:39.031Z,4.10
2018-06-22T07:06:13.127Z,4.43
2018-06-22T07:08:47.191Z,3.90
2018-06-22T07:11:21.212Z,4.17
2018-06-22T07:13:55.302Z,4.50
2018-06-22T07:16:28.977Z,4.10
2018-06-22T07:19:02.890Z,4.50
2018-06-22T07:21:36.783Z,3.90
2018-06-22T07:24:10.681Z,3.87
2018-06-22T07:26:44.971Z,3.87
2018-06-22T07:29:18.811Z,3.70
2018-06-22T07:31:52.932Z,4.07
2018-06-22T07:34:27.415Z,3.33
2018-06-22T07:37:01.162Z,3.90
2018-06-22T07:39:35.100Z,3.60
2018-06-22T07:42:09.056Z,3.90
2018-06-22T07:44:43.695Z,4.37
2018-06-22T07:47:17.928Z,3.77
2018-06-22T07:49:52.226Z,4.63
2018-06-22T07:52:26.700Z,3.77
2018-06-22T07:55:01.181Z,4.50
2018-06-22T07:57:34.946Z,4.13
2018-06-22T08:00:08.843Z,4.27
2018-06-22T08:02:42.800Z,3.50
2018-06-22T08:05:16.775Z,3.77
2018-06-22T08:07:50.955Z,4.60
2018-06-22T08:10:24.845Z,4.60
2018-06-22T08:12:58.755Z,4.20
2018-06-22T08:15:33.069Z,3.53
2018-06-22T08:18:07.172Z,4.00
2018-06-22T08:20:41.285Z,3.53
2018-06-22T08:23:15.085Z,3.60
2018-06-22T08:25:48.808Z,4.23
2018-06-22T08:28:22.811Z,3.63
2018-06-22T08:30:56.787Z,3.60
2018-06-22T08:33:31.027Z,3.47
2018-06-22T08:36:05.007Z,3.60
2018-06-22T08:38:39.468Z,3.73
2018-06-22T08:41:13.531Z,3.17
2018-06-22T08:43:47.715Z,2.80
2018-06-22T08:46:21.548Z,3.33
2018-06-22T08:48:56.174Z,3.40
2018-06-22T08:51:30.556Z,3.47
2018-06-22T08:54:04.847Z,3.80
2018-06-22T08:56:38.832Z,4.30
2018-06-22T08:59:13.093Z,3.70
2018-06-22T09:01:47.219Z,4.53
2018-06-22T09:04:21.512Z,3.50
2018-06-22T09:06:55.526Z,4.30
2018-06-22T09:09:29.412Z,3.70
2018-06-22T09:12:03.594Z,3.33
2018-06-22T09:14:37.667Z,3.30
2018-06-22T09:17:11.708Z,3.70
2018-06-22T09:19:45.826Z,3.00
2018-06-22T09:22:20.013Z,2.90
2018-06-22T09:24:53.971Z,3.60
2018-06-22T09:27:27.962Z,2.70
2018-06-22T09:30:02.045Z,2.40
2018-06-22T09:32:36.589Z,2.60
2018-06-22T09:35:10.522Z,2.10
2018-06-22T09:37:44.694Z,2.57
2018-06-22T09:40:18.585Z,2.50
2018-06-22T09:42:52.484Z,1.80
2018-06-22T09:45:26.537Z,1.63
2018-06-22T09:48:00.551Z,1.63
2018-06-22T09:50:34.611Z,1.70
2018-06-22T09:53:08.844Z,1.70
2018-06-22T09:55:42.753Z,1.40
2018-06-22T09:58:16.927Z,1.77
2018-06-22T10:00:51.935Z,1.50
2018-06-22T10:03:25.980Z,1.70
2018-06-22T10:06:00.184Z,1.47
2018-06-22T10:08:34.173Z,2.07
2018-06-22T10:11:08.182Z,1.67
2018-06-22T10:13:42.596Z,2.00
2018-06-22T10:16:16.635Z,2.17
2018-06-22T10:18:50.584Z,1.80
2018-06-22T10:21:24.652Z,2.73
2018-06-22T10:23:58.842Z,1.83
2018-06-22T10:26:32.686Z,2.00
2018-06-22T10:29:06.642Z,1.90
2018-06-22T10:31:40.789Z,1.63
2018-06-22T10:34:14.759Z,2.20
2018-06-22T10:36:49.162Z,2.07
2018-06-22T10:39:23.731Z,2.70
2018-06-22T10:41:57.722Z,2.30
2018-06-22T10:44:32.202Z,2.53
2018-06-22T10:47:06.322Z,2.40
2018-06-22T10:49:40.609Z,2.40
2018-06-22T10:52:14.951Z,2.60
2018-06-22T10:54:48.987Z,1.90
2018-06-22T10:57:23.285Z,1.83
2018-06-22T10:59:57.515Z,2.43
2018-06-22T11:02:31.607Z,2.17
2018-06-22T11:05:05.663Z,2.50
2018-06-22T11:07:39.667Z,2.50
2018-06-22T11:10:13.769Z,2.00
2018-06-22T11:12:47.806Z,2.20
2018-06-22T11:15:21.746Z,2.60
2018-06-22T11:17:55.782Z,1.20
2018-06-22T11:20:29.917Z,1.40
2018-06-22T11:23:03.954Z,1.60
2018-06-22T11:25:37.761Z,1.50
2018-06-22T11:28:11.659Z,1.40
2018-06-22T11:30:45.714Z,1.60
2018-06-22T11:33:20.022Z,2.10
2018-06-22T11:35:54.126Z,1.97
2018-06-22T11:38:28.359Z,1.80
2018-06-22T11:41:02.281Z,1.67
2018-06-22T11:43:36.655Z,1.70
2018-06-22T11:46:11.023Z,2.07
2018-06-22T11:48:45.453Z,2.37
2018-06-22T11:51:19.692Z,2.20
2018-06-22T11:53:53.806Z,1.80
2018-06-22T11:56:27.859Z,2.13
2018-06-22T11:59:01.775Z,2.30
2018-06-22T12:01:35.907Z,2.00
2018-06-22T12:04:09.927Z,2.57
2018-06-22T12:06:44.148Z,2.10
2018-06-22T12:09:18.278Z,2.10
2018-06-22T12:11:52.299Z,1.97
2018-06-22T12:14:30.807Z,1.60
2018-06-22T12:17:04.899Z,1.87
2018-06-22T12:19:38.749Z,1.93
2018-06-22T12:22:12.703Z,1.73
2018-06-22T12:24:46.785Z,1.50
2018-06-22T12:27:21.402Z,1.47
2018-06-22T12:29:55.778Z,1.33
2018-06-22T12:32:29.918Z,1.30
2018-06-22T12:35:03.947Z,1.10
2018-06-22T12:37:38.088Z,1.10
2018-06-22T12:40:12.137Z,1.20
2018-06-22T12:42:46.451Z,1.20
2018-06-22T12:45:20.268Z,0.90
2018-06-22T12:47:54.353Z,1.33
2018-06-22T12:50:28.370Z,1.50
2018-06-22T12:53:02.473Z,1.50
2018-06-22T12:55:36.464Z,1.40
2018-06-22T12:58:10.356Z,1.30
2018-06-22T13:00:44.687Z,1.60
2018-06-22T13:13:04.017Z,1.70
2018-06-22T13:15:37.826Z,2.00
2018-06-22T13:18:11.753Z,1.85
2018-06-22T13:20:45.919Z,1.67
2018-06-22T13:23:19.934Z,1.65
2018-06-22T13:25:54.091Z,1.65
2018-06-22T13:28:28.145Z,2.08
2018-06-22T13:31:02.426Z,1.82
2018-06-22T13:33:36.188Z,1.50
2018-06-22T13:36:10.199Z,1.87
2018-06-22T13:38:44.597Z,1.60
2018-06-22T13:41:18.490Z,1.50
2018-06-22T13:43:52.500Z,2.15
2018-06-22T13:46:26.683Z,1.85
2018-06-22T13:49:00.515Z,1.80
2018-06-22T13:51:35.102Z,1.77
2018-06-22T13:54:09.483Z,1.82
2018-06-22T13:56:43.623Z,1.70
2018-06-22T13:59:17.567Z,1.87
2018-06-22T14:01:52.012Z,1.90
2018-06-22T14:20:05.683Z,2.20
2018-06-22T14:22:39.668Z,2.33
2018-06-22T14:25:13.873Z,2.30
2018-06-22T14:27:48.053Z,2.23
2018-06-22T14:30:22.107Z,2.47
2018-06-22T14:32:56.057Z,2.13
2018-06-22T14:35:30.444Z,2.33
2018-06-22T14:38:04.524Z,2.47
2018-06-22T14:40:38.493Z,1.93
2018-06-22T14:43:12.347Z,2.73
2018-06-22T14:45:46.599Z,2.40
2018-06-22T14:48:20.642Z,2.60
2018-06-22T14:50:55.001Z,2.47
2018-06-22T14:53:34.582Z,2.70
2018-06-22T14:56:14.057Z,2.53
2018-06-22T14:58:53.365Z,2.77
2018-06-22T15:01:32.917Z,2.60
2018-06-22T15:04:12.368Z,2.37
2018-06-22T15:06:51.904Z,2.73
2018-06-22T15:09:25.737Z,2.60
2018-06-22T15:11:59.803Z,3.40
2018-06-22T15:14:34.085Z,2.20
2018-06-22T15:17:10.887Z,2.00
2018-06-22T15:19:45.128Z,2.13
2018-06-22T15:22:19.389Z,2.30
2018-06-22T15:24:53.292Z,2.30
2018-06-22T15:27:27.423Z,2.30
2018-06-22T15:30:01.350Z,1.93
2018-06-22T15:32:35.226Z,2.10
2018-06-22T15:35:14.906Z,2.23
2018-06-22T15:37:54.337Z,2.30
2018-06-22T15:40:34.008Z,2.20
2018-06-22T15:43:13.564Z,2.40
2018-06-22T15:45:53.100Z,2.13
2018-06-22T15:48:32.612Z,2.17
2018-06-22T15:51:12.136Z,2.27
2018-06-22T15:53:51.605Z,2.30
2018-06-22T15:56:26.090Z,2.30
2018-06-22T15:59:00.768Z,1.97
2018-06-22T16:01:35.180Z,1.87
2018-06-22T16:04:10.179Z,2.20
2018-06-22T16:06:44.423Z,1.60
2018-06-22T16:09:18.252Z,1.97
2018-06-22T16:11:54.795Z,1.53
2018-06-22T16:14:34.676Z,1.80
2018-06-22T16:17:14.183Z,1.82
2018-06-22T16:19:54.084Z,2.17
2018-06-22T16:22:33.367Z,1.75
2018-06-22T16:25:13.363Z,1.60
2018-06-22T16:27:54.047Z,2.08
2018-06-22T16:30:28.780Z,1.90
2018-06-22T16:33:03.235Z,1.72
2018-06-22T16:35:37.551Z,2.20
2018-06-22T16:38:11.527Z,2.42
2018-06-22T16:40:45.350Z,2.20
2018-06-22T16:43:19.323Z,2.08
2018-06-22T16:45:53.343Z,1.87
2018-06-22T16:48:27.692Z,2.45
2018-06-22T16:51:02.116Z,2.30
2018-06-22T16:53:36.202Z,2.25
2018-06-22T16:56:10.184Z,2.10
2018-06-22T16:58:44.634Z,1.98
2018-06-22T17:01:18.938Z,2.05
2018-06-22T17:03:53.379Z,1.90
2018-06-22T17:06:31.924Z,1.75
2018-06-22T17:09:13.044Z,2.00
2018-06-22T17:11:52.818Z,1.98
2018-06-22T17:14:32.078Z,2.40
2018-06-22T17:17:11.653Z,1.95
2018-06-22T17:19:45.667Z,1.98
2018-06-22T17:22:19.727Z,1.72
2018-06-22T17:24:53.683Z,2.42
2018-06-22T17:27:27.543Z,1.90
2018-06-22T17:30:01.754Z,1.67
2018-06-22T17:32:35.709Z,1.60
2018-06-22T17:35:09.583Z,2.12
2018-06-22T17:37:43.664Z,1.93
2018-06-22T17:40:17.592Z,2.00
2018-06-22T17:42:51.554Z,2.20
2018-06-22T17:45:25.922Z,1.97
2018-06-22T17:47:59.901Z,1.90
2018-06-22T17:50:33.835Z,2.00
2018-06-22T17:53:08.149Z,2.00
2018-06-22T17:55:45.532Z,2.47
2018-06-22T17:58:19.403Z,2.10
2018-06-22T18:00:59.136Z,2.50
2018-06-22T18:03:38.468Z,2.30
2018-06-22T18:06:17.884Z,2.50
2018-06-22T18:08:52.215Z,2.10
2018-06-22T18:12:34.952Z,2.73
2018-06-22T18:15:09.167Z,2.53
2018-06-22T18:17:43.078Z,2.60
2018-06-22T18:20:17.411Z,2.57
2018-06-22T18:22:51.971Z,2.63
2018-06-22T18:25:25.871Z,2.50
2018-06-22T18:28:00.070Z,2.37
2018-06-22T18:30:35.245Z,2.50
2018-06-22T18:33:09.334Z,2.27
2018-06-22T18:35:43.540Z,2.30
2018-06-22T18:38:17.759Z,2.47
2018-06-22T18:40:51.705Z,2.30
2018-06-22T18:43:31.943Z,2.57
2018-06-22T18:46:08.157Z,2.73
2018-06-22T18:48:42.234Z,2.90
2018-06-22T18:51:16.269Z,2.33
2018-06-22T18:53:55.629Z,3.00
2018-06-22T18:56:35.323Z,2.53
2018-06-22T18:59:14.743Z,2.37
2018-06-22T19:01:54.248Z,2.97
2018-06-22T19:04:28.370Z,2.67
2018-06-22T19:07:02.756Z,2.80
2018-06-22T19:09:36.688Z,2.60
2018-06-22T19:12:11.053Z,2.80
2018-06-22T19:14:44.973Z,3.00
2018-06-22T19:17:19.098Z,3.03
2018-06-22T19:19:53.301Z,2.50
2018-06-22T19:22:27.618Z,2.90
2018-06-22T19:25:01.510Z,2.70
2018-06-22T19:27:35.922Z,2.60
2018-06-22T19:30:10.230Z,2.30
2018-06-22T19:32:44.325Z,2.33
2018-06-22T19:35:18.191Z,2.40
2018-06-22T19:37:56.694Z,2.13
2018-06-22T19:40:30.595Z,2.27
2018-06-22T19:43:04.903Z,2.27
2018-06-22T19:45:44.554Z,2.40
2018-06-22T19:48:23.811Z,2.50
2018-06-22T19:51:03.552Z,2.00
2018-06-22T19:54:00.791Z,2.77
2018-06-22T19:56:39.219Z,2.40
2018-06-22T19:59:13.524Z,2.83
2018-06-22T20:01:47.682Z,2.80
2018-06-22T20:04:21.936Z,3.33
2018-06-22T20:06:56.274Z,2.90
2018-06-22T20:09:30.568Z,2.07
2018-06-22T20:12:05.122Z,2.43
2018-06-22T20:14:39.253Z,2.60
2018-06-22T20:17:13.724Z,2.20
2018-06-22T20:19:48.172Z,2.67
2018-06-22T20:22:22.362Z,2.90
2018-06-22T20:25:02.008Z,2.57
2018-06-22T20:27:35.984Z,2.57
2018-06-22T20:30:10.114Z,2.87
2018-06-22T20:32:44.390Z,2.60
2018-06-22T20:35:24.113Z,2.97
2018-06-22T20:38:03.560Z,2.70
2018-06-22T20:40:42.882Z,2.80
2018-06-22T20:43:22.382Z,3.60
2018-06-22T20:45:57.964Z,3.30
2018-06-22T20:48:37.534Z,3.17
2018-06-22T20:51:11.453Z,2.70
2018-06-22T20:53:45.623Z,2.60
2018-06-22T20:56:19.542Z,3.20
2018-06-22T20:58:53.604Z,2.80
2018-06-22T21:01:27.782Z,2.50
2018-06-22T21:04:01.874Z,3.20
2018-06-22T21:06:36.148Z,2.80
2018-06-22T21:09:10.709Z,3.00
2018-06-22T21:11:44.643Z,2.77
2018-06-22T21:14:18.962Z,3.10
2018-06-22T21:16:53.353Z,3.20
2018-06-22T21:19:31.552Z,3.00
2018-06-22T21:22:09.132Z,3.23
2018-06-22T21:24:46.639Z,3.10
2018-06-22T21:27:25.937Z,2.93
2018-06-22T21:30:05.656Z,2.90
2018-06-22T21:32:45.169Z,3.07
2018-06-22T21:35:25.251Z,2.77
2018-06-22T21:38:05.067Z,2.60
2018-06-22T21:40:39.155Z,2.60
2018-06-22T21:43:13.402Z,3.07
2018-06-22T21:45:47.400Z,2.57
2018-06-22T21:48:21.403Z,2.37
2018-06-22T21:50:55.453Z,2.70
2018-06-22T21:53:29.555Z,2.40
2018-06-22T21:56:03.693Z,2.50
2018-06-22T21:58:37.757Z,2.80
2018-06-22T22:01:11.985Z,2.93
2018-06-22T22:03:46.134Z,3.00
2018-06-22T22:06:20.279Z,3.17
2018-06-22T22:08:54.527Z,2.80
2018-06-22T22:11:34.223Z,3.37
2018-06-22T22:14:08.268Z,2.93
2018-06-22T22:16:42.207Z,2.83
2018-06-22T22:19:16.420Z,3.07
2018-06-22T22:21:50.387Z,3.50
2018-06-22T22:24:24.466Z,3.30
2018-06-22T22:26:58.612Z,3.67
2018-06-22T22:29:32.616Z,3.00
2018-06-22T22:32:06.788Z,3.30
2018-06-22T22:34:40.941Z,3.33
2018-06-22T22:37:15.198Z,2.70
2018-06-22T22:39:49.268Z,3.53
2018-06-22T22:42:23.688Z,3.47
2018-06-22T22:44:57.688Z,3.30
2018-06-22T22:47:31.662Z,3.30
2018-06-22T22:50:05.693Z,3.20
2018-06-22T22:52:39.718Z,3.43
2018-06-22T22:55:13.698Z,3.47
2018-06-22T22:57:47.643Z,4.13
2018-06-22T23:00:22.792Z,4.10
2018-06-22T23:02:56.783Z,3.97
2018-06-22T23:05:30.992Z,3.60
2018-06-22T23:08:05.073Z,4.03
2018-06-22T23:10:39.117Z,3.13
2018-06-22T23:13:13.252Z,3.50
2018-06-22T23:15:47.425Z,3.43
2018-06-22T23:18:21.727Z,3.27
2018-06-22T23:20:55.627Z,3.73
2018-06-22T23:23:34.020Z,3.83
2018-06-22T23:26:08.182Z,3.63
2018-06-22T23:28:43.294Z,3.37
2018-06-22T23:31:17.231Z,3.83
2018-06-22T23:33:51.004Z,3.47
2018-06-22T23:36:25.527Z,4.53
2018-06-22T23:39:00.201Z,3.20
2018-06-22T23:41:34.083Z,4.17
2018-06-22T23:44:08.005Z,4.10
2018-06-22T23:46:41.853Z,3.80
2018-06-22T23:49:15.782Z,3.87
2018-06-22T23:51:50.367Z,3.77
2018-06-22T23:54:24.923Z,3.60
2018-06-22T23:56:58.889Z,4.03
2018-06-22T23:59:32.972Z,3.43
